New Orleans, Louisiana
Traffic Map
Current Weather Conditions
New Orleans, Louisiana
Clear
Clear
54°
Feels Like: 54°
Wind Chill: 54° Ceiling: Unl
Heat Index: 54° Visibility: 10mi
Dew Point: 34° Wind: 12mph
Humidity: 47% Direction: 340° (NNW)
Pressure: 30.32in Gusts: 0mph
Raw Report DataKNEW 272253Z 34010KT 10SM CLR 12/01 A3032 RMK AO2 SLP261 T01220011
Traffic Incident Summary
Active as of:
Severity:
Category:
InformationThere was an issue retrieving the traffic information for this location. Please try a different location or try again shortly.
Advertisements
Track Severe Weather on mobile